Airfield :
LOGIN :

Register | Disclaimer

   EN    FR    IT 

 










Legend :    VFR   Marginal VFR   IFR   Intensive IFR   Very Intensive IFR
Visi :
Ceiling :
>= 8 km
>= 3000ft
5 to 8 km
1000 to 3000 ft
1500m to 5 km
500 to 1000 ft
800 to 1500m
200 to 500 ft
< 800m
< 200 ft
Symbols :   Thunderstorms  Fog  Heavy snow  Heavy precipitations  Wind > 20 kt
SIGMETs :     Misc.  Thunderstorms  Icing  Turbulence  Mountain Waves  Volcanic Ashes






- Airport Elevation : 86 ft


LERT - Rota Navy

CURRENT METAR :
  • 251600Z 24007KT 200V260 9999 FEW029 SCT048 14/11 Q1015 NOSIG

EXPIRED METARs :
  • 251500Z 16007KT 130V200 9999 SCT020TCU BKN050 15/12 Q1015 NOSIG
  • 251400Z 15006KT 9999 SCT024 SCT059 14/12 Q1015 NOSIG

TAF TAF LERT
Valid from the 25 at 15:00 until the 26 at 00:00 UTC


251400Z 2515/2524 19009KT 9999 SCT030
PROB40
TEMPO 2515/2517 4000 SHRA SCT030TCU



MET'MAP, your aeronautical weather chart ! - Copyright ORBIFLY December 2007 - Disclaimer

ORBIFLY MET'MAP TEAM :

Programming & Development : Alexandra Zaïnal
Concept & original design : Baudouin d'Aumeries
Assistance for programming : Marc-Olivier Méhu
Technical & hardware support : Manuel Goepfert

Contact : metmap@orbifly.com




SOURCES & CREDITS :

   NOAA